YM Warmth — VROO5 — position and weather

sailwx.info

Track history (hours):
 
Tides and Currents Weather Stations Pressure Air Temp Water Temp Dewpoint Dewpoint Depression Visibility Wind Speed Wind Dir Waves Ship Positions

YM Warmth

Last reported at 2017-Nov-10 02:28 UTC. Time now 2017-Nov-18 16:06 UTC.
Position N 30°17' E 125°32'.
Warning: this ship's position is 8 days out of date.

Length 368 m; draft 12.3 m.

Type: Cargo ship. MMSI: 477948800.

Date/timePositionNaut miles runAvg speedWind from/ knotsBaromVisibWave heightAir tempDewpointWater temp
2017-Nov-10 02:28N 30°17' E 125°32'0 0.4
2017-Nov-10 02:01N 30°17' E 125°32'  
2017-Nov-07 11:49N 23°51' E 118°47'810.3
2017-Nov-07 11:02N 23°48' E 118°39'710.3
2017-Nov-07 10:23N 23°45' E 118°32'410.4
2017-Nov-07 10:00N 23°43' E 118°29'242 7.3
2017-Nov-06 01:00N 22°34' E 114°16'0 0.0
2017-Nov-06 00:30N 22°34' E 114°16'0 0.0
2017-Nov-06 00:00N 22°34' E 114°16'0 0.0
2017-Nov-05 23:30N 22°34' E 114°16'0 0.0
2017-Nov-05 23:00N 22°34' E 114°16'0 0.0
2017-Nov-05 22:30N 22°34' E 114°16'0 0.0
2017-Nov-05 22:00N 22°34' E 114°16'0 0.1
2017-Nov-05 21:30N 22°34' E 114°16'0 0.1
2017-Nov-05 21:00N 22°34' E 114°16'0 0.0
2017-Nov-05 20:30N 22°34' E 114°16'0 0.0
2017-Nov-05 20:00N 22°34' E 114°16'0 0.1
2017-Nov-05 19:30N 22°34' E 114°16'0 0.0
2017-Nov-05 19:00N 22°34' E 114°16'0 0.1
2017-Nov-05 18:30N 22°34' E 114°16'0 0.0
2017-Nov-05 18:00N 22°34' E 114°16'0 0.1
2017-Nov-05 17:24N 22°34' E 114°16'0 0.0
2017-Nov-05 17:00N 22°34' E 114°16'0 0.1
2017-Nov-05 16:30N 22°34' E 114°16'0 0.0
2017-Nov-05 16:00N 22°34' E 114°16'0 0.0
2017-Nov-05 15:27N 22°34' E 114°16'0 0.0
2017-Nov-05 15:00N 22°34' E 114°16'0 0.0
2017-Nov-05 14:30N 22°34' E 114°16'0 0.0
2017-Nov-05 13:24N 22°34' E 114°16'0 0.2
2017-Nov-05 13:00N 22°34' E 114°16'2 3.7
2017-Nov-05 12:30N 22°34' E 114°18'612.7
2017-Nov-05 12:00N 22°32' E 114°24'510.0
2017-Nov-05 11:30N 22°28' E 114°28'3 5.8
2017-Nov-05 11:00N 22°25' E 114°29'510.1
2017-Nov-05 10:31N 22°20' E 114°30'4 7.6
2017-Nov-05 10:01N 22°17' E 114°32'1 1.8
2017-Nov-05 09:31N 22°17' E 114°33'1 1.1
2017-Nov-05 09:00N 22°17' E 114°33'1 1.3
2017-Nov-05 08:30N 22°16' E 114°33'3 5.2
2017-Nov-05 08:00N 22°15' E 114°31'1 1.2
2017-Nov-05 07:30N 22°15' E 114°31'1 1.7
2017-Nov-05 07:01N 22°15' E 114°32'1 1.5
2017-Nov-05 06:30N 22°16' E 114°33'0 0.3
2017-Nov-05 06:01N 22°16' E 114°33'2 4.3
2017-Nov-05 05:30N 22°15' E 114°30'1 1.3
2017-Nov-05 05:00N 22°15' E 114°31'1 1.6
2017-Nov-05 04:30N 22°16' E 114°32'1 1.7
2017-Nov-05 04:01N 22°16' E 114°33'1 1.2
2017-Nov-05 03:31N 22°16' E 114°33'3 5.2
2017-Nov-05 03:01N 22°14' E 114°31'4 7.0
2017-Nov-05 02:30N 22°11' E 114°29'4 7.3
2017-Nov-05 02:01N 22°09' E 114°26'4 7.4
2017-Nov-05 01:31N 22°07' E 114°22'3 6.7
2017-Nov-05 01:00N 22°07' E 114°19'9 6.4
2017-Nov-04 23:37N 22°12' E 114°10'4 8.3
2017-Nov-04 23:10N 22°14' E 114°08'813.6
2017-Nov-04 22:35N 22°22' E 114°04'114.2
2017-Nov-04 22:29N 22°21' E 114°03'714.2
2017-Nov-04 22:00N 22°21' E 113°55'3 6.6
2017-Nov-04 21:30N 22°24' E 113°53'3 6.8
2017-Nov-04 21:00N 22°28' E 113°53'0 0.0
2017-Nov-04 20:30N 22°28' E 113°53'0 0.0
2017-Nov-04 20:00N 22°28' E 113°53'0 0.0
2017-Nov-04 19:30N 22°28' E 113°53'0 0.0
2017-Nov-04 19:00N 22°28' E 113°53'0 0.0
2017-Nov-04 18:30N 22°28' E 113°53'0 0.0
2017-Nov-04 18:00N 22°28' E 113°53'0 0.0
2017-Nov-04 17:27N 22°28' E 113°53'0 0.0
2017-Nov-04 17:00N 22°28' E 113°53'0 0.1
2017-Nov-04 16:30N 22°28' E 113°53'0 0.1
2017-Nov-04 16:00N 22°28' E 113°53'0 0.0
2017-Nov-04 15:30N 22°28' E 113°53'0 0.0
2017-Nov-04 15:00N 22°28' E 113°53'0 0.0
2017-Nov-04 14:30N 22°28' E 113°53'0 0.0
2017-Nov-04 14:00N 22°28' E 113°53'0 0.0
2017-Nov-04 13:30N 22°28' E 113°53'0 0.0
2017-Nov-04 13:00N 22°28' E 113°53'0 0.0
2017-Nov-04 12:24N 22°28' E 113°53'0 0.0
2017-Nov-04 12:00N 22°28' E 113°53'0 0.0
2017-Nov-04 11:30N 22°28' E 113°53'0 0.0
2017-Nov-04 11:00N 22°28' E 113°53'0 0.0
2017-Nov-04 10:30N 22°28' E 113°53'0 0.0
2017-Nov-04 10:00N 22°28' E 113°53'0 0.3
2017-Nov-04 09:30N 22°27' E 113°53'3 5.7
2017-Nov-04 09:00N 22°25' E 113°53'4 8.4
2017-Nov-04 08:30N 22°21' E 113°56'611.6
2017-Nov-04 08:00N 22°21' E 114°02'6 9.6
2017-Nov-04 07:25N 22°17' E 114°06'512.6
2017-Nov-04 07:00N 22°13' E 114°10'4 8.2
2017-Nov-04 06:30N 22°10' E 114°13'6 8.5
2017-Nov-04 05:48N 22°08' E 114°19'3 9.4
2017-Nov-04 05:29N 22°07' E 114°22'4 7.3
2017-Nov-04 05:00N 22°04' E 114°24'4 8.7
2017-Nov-04 04:30N 21°60' E 114°23'4 8.2
2017-Nov-04 03:59N 21°56' E 114°22'1 1.7
2017-Nov-04 03:31N 21°56' E 114°23'1 1.9
2017-Nov-04 03:00N 21°56' E 114°24'3 4.9
2017-Nov-04 02:20N 21°58' E 114°26'1 3.9
2017-Nov-04 02:00N 21°58' E 114°25'4 7.8
2017-Nov-04 01:30N 21°54' E 114°23'3 5.6
2017-Nov-04 01:00N 21°51' E 114°22'5 9.9
2017-Nov-04 00:30N 21°47' E 114°18'  
2017-Oct-31 04:22N 01°14' E 104°05'717.7
2017-Oct-31 03:58N 01°14' E 103°58'613.1
2017-Oct-31 03:30N 01°11' E 103°52'611.8
2017-Oct-31 03:00N 01°09' E 103°47'714.4
2017-Oct-31 02:30N 01°04' E 103°42'  
Track history (hours):
 
Tides and Currents Weather Stations Pressure Air Temp Water Temp Dewpoint Dewpoint Depression Visibility Wind Speed Wind Dir Waves Ship Positions

YM Warmth

Last reported at 2017-Nov-10 02:28 UTC. Time now 2017-Nov-18 16:06 UTC.
Position N 30°17' E 125°32'.
Warning: this ship's position is 8 days out of date.

Length 368 m; draft 12.3 m.

Type: Cargo ship. MMSI: 477948800.

Date/timePositionNaut miles runAvg speedWind from/ knotsBaromVisibWave heightAir tempDewpointWater temp
2017-Nov-10 02:28N 30°17' E 125°32'0 0.4
2017-Nov-10 02:01N 30°17' E 125°32'  
2017-Nov-07 11:49N 23°51' E 118°47'810.3
2017-Nov-07 11:02N 23°48' E 118°39'710.3
2017-Nov-07 10:23N 23°45' E 118°32'410.4
2017-Nov-07 10:00N 23°43' E 118°29'242 7.3
2017-Nov-06 01:00N 22°34' E 114°16'0 0.0
2017-Nov-06 00:30N 22°34' E 114°16'0 0.0
2017-Nov-06 00:00N 22°34' E 114°16'0 0.0
2017-Nov-05 23:30N 22°34' E 114°16'0 0.0
2017-Nov-05 23:00N 22°34' E 114°16'0 0.0
2017-Nov-05 22:30N 22°34' E 114°16'0 0.0
2017-Nov-05 22:00N 22°34' E 114°16'0 0.1
2017-Nov-05 21:30N 22°34' E 114°16'0 0.1
2017-Nov-05 21:00N 22°34' E 114°16'0 0.0
2017-Nov-05 20:30N 22°34' E 114°16'0 0.0
2017-Nov-05 20:00N 22°34' E 114°16'0 0.1
2017-Nov-05 19:30N 22°34' E 114°16'0 0.0
2017-Nov-05 19:00N 22°34' E 114°16'0 0.1
2017-Nov-05 18:30N 22°34' E 114°16'0 0.0
2017-Nov-05 18:00N 22°34' E 114°16'0 0.1
2017-Nov-05 17:24N 22°34' E 114°16'0 0.0
2017-Nov-05 17:00N 22°34' E 114°16'0 0.1
2017-Nov-05 16:30N 22°34' E 114°16'0 0.0
2017-Nov-05 16:00N 22°34' E 114°16'0 0.0
2017-Nov-05 15:27N 22°34' E 114°16'0 0.0
2017-Nov-05 15:00N 22°34' E 114°16'0 0.0
2017-Nov-05 14:30N 22°34' E 114°16'0 0.0
2017-Nov-05 13:24N 22°34' E 114°16'0 0.2
2017-Nov-05 13:00N 22°34' E 114°16'2 3.7
2017-Nov-05 12:30N 22°34' E 114°18'612.7
2017-Nov-05 12:00N 22°32' E 114°24'510.0
2017-Nov-05 11:30N 22°28' E 114°28'3 5.8
2017-Nov-05 11:00N 22°25' E 114°29'510.1
2017-Nov-05 10:31N 22°20' E 114°30'4 7.6
2017-Nov-05 10:01N 22°17' E 114°32'1 1.8
2017-Nov-05 09:31N 22°17' E 114°33'1 1.1
2017-Nov-05 09:00N 22°17' E 114°33'1 1.3
2017-Nov-05 08:30N 22°16' E 114°33'3 5.2
2017-Nov-05 08:00N 22°15' E 114°31'1 1.2
2017-Nov-05 07:30N 22°15' E 114°31'1 1.7
2017-Nov-05 07:01N 22°15' E 114°32'1 1.5
2017-Nov-05 06:30N 22°16' E 114°33'0 0.3
2017-Nov-05 06:01N 22°16' E 114°33'2 4.3
2017-Nov-05 05:30N 22°15' E 114°30'1 1.3
2017-Nov-05 05:00N 22°15' E 114°31'1 1.6
2017-Nov-05 04:30N 22°16' E 114°32'1 1.7
2017-Nov-05 04:01N 22°16' E 114°33'1 1.2
2017-Nov-05 03:31N 22°16' E 114°33'3 5.2
2017-Nov-05 03:01N 22°14' E 114°31'4 7.0
2017-Nov-05 02:30N 22°11' E 114°29'4 7.3
2017-Nov-05 02:01N 22°09' E 114°26'4 7.4
2017-Nov-05 01:31N 22°07' E 114°22'3 6.7
2017-Nov-05 01:00N 22°07' E 114°19'9 6.4
2017-Nov-04 23:37N 22°12' E 114°10'4 8.3
2017-Nov-04 23:10N 22°14' E 114°08'813.6
2017-Nov-04 22:35N 22°22' E 114°04'114.2
2017-Nov-04 22:29N 22°21' E 114°03'714.2
2017-Nov-04 22:00N 22°21' E 113°55'3 6.6
2017-Nov-04 21:30N 22°24' E 113°53'3 6.8
2017-Nov-04 21:00N 22°28' E 113°53'0 0.0
2017-Nov-04 20:30N 22°28' E 113°53'0 0.0
2017-Nov-04 20:00N 22°28' E 113°53'0 0.0
2017-Nov-04 19:30N 22°28' E 113°53'0 0.0
2017-Nov-04 19:00N 22°28' E 113°53'0 0.0
2017-Nov-04 18:30N 22°28' E 113°53'0 0.0
2017-Nov-04 18:00N 22°28' E 113°53'0 0.0
2017-Nov-04 17:27N 22°28' E 113°53'0 0.0
2017-Nov-04 17:00N 22°28' E 113°53'0 0.1
2017-Nov-04 16:30N 22°28' E 113°53'0 0.1
2017-Nov-04 16:00N 22°28' E 113°53'0 0.0
2017-Nov-04 15:30N 22°28' E 113°53'0 0.0
2017-Nov-04 15:00N 22°28' E 113°53'0 0.0
2017-Nov-04 14:30N 22°28' E 113°53'0 0.0
2017-Nov-04 14:00N 22°28' E 113°53'0 0.0
2017-Nov-04 13:30N 22°28' E 113°53'0 0.0
2017-Nov-04 13:00N 22°28' E 113°53'0 0.0
2017-Nov-04 12:24N 22°28' E 113°53'0 0.0
2017-Nov-04 12:00N 22°28' E 113°53'0 0.0
2017-Nov-04 11:30N 22°28' E 113°53'0 0.0
2017-Nov-04 11:00N 22°28' E 113°53'0 0.0
2017-Nov-04 10:30N 22°28' E 113°53'0 0.0
2017-Nov-04 10:00N 22°28' E 113°53'0 0.3
2017-Nov-04 09:30N 22°27' E 113°53'3 5.7
2017-Nov-04 09:00N 22°25' E 113°53'4 8.4
2017-Nov-04 08:30N 22°21' E 113°56'611.6
2017-Nov-04 08:00N 22°21' E 114°02'6 9.6
2017-Nov-04 07:25N 22°17' E 114°06'512.6
2017-Nov-04 07:00N 22°13' E 114°10'4 8.2
2017-Nov-04 06:30N 22°10' E 114°13'6 8.5
2017-Nov-04 05:48N 22°08' E 114°19'3 9.4
2017-Nov-04 05:29N 22°07' E 114°22'4 7.3
2017-Nov-04 05:00N 22°04' E 114°24'4 8.7
2017-Nov-04 04:30N 21°60' E 114°23'4 8.2
2017-Nov-04 03:59N 21°56' E 114°22'1 1.7
2017-Nov-04 03:31N 21°56' E 114°23'1 1.9
2017-Nov-04 03:00N 21°56' E 114°24'3 4.9
2017-Nov-04 02:20N 21°58' E 114°26'1 3.9
2017-Nov-04 02:00N 21°58' E 114°25'4 7.8
2017-Nov-04 01:30N 21°54' E 114°23'3 5.6
2017-Nov-04 01:00N 21°51' E 114°22'5 9.9
2017-Nov-04 00:30N 21°47' E 114°18'  
2017-Oct-31 04:22N 01°14' E 104°05'717.7
2017-Oct-31 03:58N 01°14' E 103°58'613.1
2017-Oct-31 03:30N 01°11' E 103°52'611.8
2017-Oct-31 03:00N 01°09' E 103°47'714.4
2017-Oct-31 02:30N 01°04' E 103°42'  

Dump ship's entire track history